Time;durP1;ratioP1;P1;durP2;ratioP2;P2;SDS_P1;SDS_P2;PMS_P1;PMS_P2;Temp;Humidity;BMP_temperature;BMP_pressure;BME280_temperature;BME280_humidity;BME280_pressure;Samples;Min_cycle;Max_cycle;Signal;HPM_P1;HPM_P2
2022/03/07 00:01:46;;;;;;;3.50;1.48;;;;;;;;;;5095018;28;20043;-76
2022/03/07 00:04:14;;;;;;;7.18;1.42;;;;;;;;;;5106300;28;20103;-76
2022/03/07 00:06:40;;;;;;;3.28;1.20;;;;;;;;;;5100143;28;20032;-76
2022/03/07 00:09:06;;;;;;;8.75;1.55;;;;;;;;;;5110692;28;20058;-76
2022/03/07 00:11:32;;;;;;;24.73;1.67;;;;;;;;;;5103995;28;20031;-76
2022/03/07 00:13:58;;;;;;;9.90;1.27;;;;;;;;;;5108483;28;20055;-76
2022/03/07 00:16:24;;;;;;;4.97;1.02;;;;;;;;;;5099453;28;20037;-76
2022/03/07 00:18:50;;;;;;;3.75;1.00;;;;;;;;;;5103489;28;20058;-76
2022/03/07 00:21:16;;;;;;;6.65;1.45;;;;;;;;;;5105830;28;20946;-76
2022/03/07 00:23:42;;;;;;;5.70;1.33;;;;;;;;;;5094737;28;20035;-76
2022/03/07 00:26:08;;;;;;;4.78;1.10;;;;;;;;;;5098848;28;20036;-76
2022/03/07 00:28:34;;;;;;;7.95;1.33;;;;;;;;;;5082772;28;20471;-75
2022/03/07 00:31:00;;;;;;;11.30;1.38;;;;;;;;;;5104788;28;20023;-76
2022/03/07 00:33:27;;;;;;;6.85;1.50;;;;;;;;;;5078987;28;20024;-75
2022/03/07 00:35:53;;;;;;;9.70;1.63;;;;;;;;;;5081437;28;20031;-75
2022/03/07 00:38:19;;;;;;;7.03;1.40;;;;;;;;;;5107486;28;20023;-76
2022/03/07 00:40:45;;;;;;;6.50;1.23;;;;;;;;;;5110281;28;20031;-76
2022/03/07 00:43:11;;;;;;;6.07;1.33;;;;;;;;;;5101406;28;20039;-75
2022/03/07 00:45:37;;;;;;;3.85;1.10;;;;;;;;;;5107425;28;20035;-76
2022/03/07 00:48:03;;;;;;;2.47;0.70;;;;;;;;;;5107107;27;20463;-75
2022/03/07 00:50:29;;;;;;;5.15;1.15;;;;;;;;;;5106387;28;20016;-75
2022/03/07 00:52:56;;;;;;;2.45;0.93;;;;;;;;;;5103692;28;20106;-75
2022/03/07 00:55:22;;;;;;;7.47;1.30;;;;;;;;;;5101532;28;20047;-75
2022/03/07 00:57:48;;;;;;;5.00;1.17;;;;;;;;;;5103944;27;20048;-75
2022/03/07 01:00:14;;;;;;;5.15;1.20;;;;;;;;;;5098535;28;20031;-75
2022/03/07 01:02:40;;;;;;;6.70;1.30;;;;;;;;;;5106093;28;20059;-75
2022/03/07 01:05:07;;;;;;;6.35;1.20;;;;;;;;;;5099128;28;20032;-75
2022/03/07 01:07:33;;;;;;;4.90;1.40;;;;;;;;;;5082584;28;20123;-75
2022/03/07 01:09:59;;;;;;;8.60;1.20;;;;;;;;;;5097564;28;20024;-75
2022/03/07 01:12:25;;;;;;;3.97;1.05;;;;;;;;;;5097624;28;20120;-75
2022/03/07 01:14:51;;;;;;;3.17;1.17;;;;;;;;;;5102043;28;20036;-75
2022/03/07 01:17:17;;;;;;;5.63;1.25;;;;;;;;;;5100814;28;20043;-75
2022/03/07 01:19:44;;;;;;;19.58;2.45;;;;;;;;;;5097079;28;20483;-75
2022/03/07 01:22:10;;;;;;;5.70;1.63;;;;;;;;;;5109558;27;20391;-76
2022/03/07 01:24:37;;;;;;;5.05;1.35;;;;;;;;;;5097772;27;20032;-76
2022/03/07 01:27:04;;;;;;;6.63;1.10;;;;;;;;;;5101019;28;20032;-75
2022/03/07 01:29:30;;;;;;;3.85;1.00;;;;;;;;;;5111219;27;20102;-75
2022/03/07 01:31:56;;;;;;;5.60;1.23;;;;;;;;;;5104513;27;20106;-75
2022/03/07 01:34:22;;;;;;;3.25;0.98;;;;;;;;;;5087858;28;20039;-75
2022/03/07 01:36:48;;;;;;;2.63;1.00;;;;;;;;;;5074233;28;20089;-75
2022/03/07 01:39:14;;;;;;;4.65;1.52;;;;;;;;;;5100663;28;20031;-75
2022/03/07 01:41:40;;;;;;;7.50;1.15;;;;;;;;;;5101587;28;20035;-75
2022/03/07 01:44:16;;;;;;;4.82;1.40;;;;;;;;;;5100928;27;20028;-75
2022/03/07 01:46:42;;;;;;;2.95;1.30;;;;;;;;;;5108943;28;20069;-75
2022/03/07 01:49:08;;;;;;;4.05;1.30;;;;;;;;;;5100360;28;20032;-75
2022/03/07 01:51:34;;;;;;;4.72;1.70;;;;;;;;;;5105797;28;20571;-75
2022/03/07 01:54:00;;;;;;;9.25;1.30;;;;;;;;;;5074103;28;20039;-75
2022/03/07 01:56:26;;;;;;;4.70;1.15;;;;;;;;;;5101608;27;20138;-75
2022/03/07 01:58:52;;;;;;;6.90;1.65;;;;;;;;;;5109468;28;20023;-75
2022/03/07 02:01:19;;;;;;;4.40;1.60;;;;;;;;;;5095991;28;20078;-75
2022/03/07 02:03:45;;;;;;;5.68;1.17;;;;;;;;;;5086227;28;20028;-76
2022/03/07 02:06:11;;;;;;;2.38;1.00;;;;;;;;;;5103914;27;20020;-76
2022/03/07 02:08:37;;;;;;;5.53;1.05;;;;;;;;;;5087407;28;20032;-75
2022/03/07 02:11:03;;;;;;;6.85;1.30;;;;;;;;;;5107062;27;20054;-75
2022/03/07 02:13:30;;;;;;;6.90;2.50;;;;;;;;;;5100734;28;20059;-75
2022/03/07 02:15:57;;;;;;;3.88;0.98;;;;;;;;;;5106893;28;20034;-76
2022/03/07 02:18:23;;;;;;;5.95;1.00;;;;;;;;;;5100007;28;20032;-76
2022/03/07 02:20:53;;;;;;;5.22;1.35;;;;;;;;;;5106858;27;20072;-76
2022/03/07 02:23:19;;;;;;;4.13;1.45;;;;;;;;;;5106597;28;20467;-76
2022/03/07 02:25:45;;;;;;;8.75;1.30;;;;;;;;;;5106709;28;20035;-76
2022/03/07 02:28:11;;;;;;;3.15;1.10;;;;;;;;;;5104353;27;20031;-76
2022/03/07 02:30:39;;;;;;;5.63;1.40;;;;;;;;;;5093458;28;20024;-76
2022/03/07 02:33:05;;;;;;;3.80;1.65;;;;;;;;;;5069097;28;20426;-76
2022/03/07 02:35:31;;;;;;;3.60;1.00;;;;;;;;;;5098765;28;20070;-75
2022/03/07 02:37:57;;;;;;;4.40;1.42;;;;;;;;;;5102639;27;20028;-77
2022/03/07 02:40:23;;;;;;;5.60;1.08;;;;;;;;;;5100734;28;20044;-76
2022/03/07 02:42:49;;;;;;;4.47;0.90;;;;;;;;;;5096160;28;20124;-77
2022/03/07 02:45:15;;;;;;;2.55;0.93;;;;;;;;;;5077038;28;20055;-76
2022/03/07 02:47:41;;;;;;;6.45;1.25;;;;;;;;;;5101313;28;20032;-76
2022/03/07 02:50:07;;;;;;;4.80;1.33;;;;;;;;;;5096110;28;20039;-76
2022/03/07 02:52:33;;;;;;;9.27;2.30;;;;;;;;;;5103008;27;20477;-76
2022/03/07 02:55:00;;;;;;;7.25;1.60;;;;;;;;;;5109997;28;20429;-76
2022/03/07 02:57:26;;;;;;;8.75;1.77;;;;;;;;;;5101363;28;20040;-75
2022/03/07 02:59:52;;;;;;;11.00;2.15;;;;;;;;;;5098281;27;20054;-76
2022/03/07 03:02:18;;;;;;;3.15;1.25;;;;;;;;;;5084909;28;20110;-76
2022/03/07 03:04:45;;;;;;;2.50;0.90;;;;;;;;;;5100554;27;20016;-76
2022/03/07 03:07:11;;;;;;;5.00;1.20;;;;;;;;;;5077549;28;20032;-76
2022/03/07 03:09:37;;;;;;;5.35;1.55;;;;;;;;;;5104229;28;20050;-76
2022/03/07 03:12:03;;;;;;;3.33;1.02;;;;;;;;;;5102454;28;20039;-76
2022/03/07 03:14:29;;;;;;;4.00;1.50;;;;;;;;;;5087252;28;20062;-76
2022/03/07 03:16:55;;;;;;;2.05;0.90;;;;;;;;;;5100021;28;20391;-76
2022/03/07 03:19:22;;;;;;;3.72;1.20;;;;;;;;;;5102407;28;20130;-76
2022/03/07 03:21:48;;;;;;;5.65;1.33;;;;;;;;;;5077841;28;20042;-77
2022/03/07 03:24:14;;;;;;;6.43;1.27;;;;;;;;;;5103024;28;20537;-77
2022/03/07 03:26:40;;;;;;;4.65;1.50;;;;;;;;;;5091252;28;20028;-77
2022/03/07 03:29:06;;;;;;;4.53;1.05;;;;;;;;;;5098829;28;20035;-77
2022/03/07 03:31:32;;;;;;;4.95;1.27;;;;;;;;;;5099807;28;20499;-76
2022/03/07 03:33:58;;;;;;;7.00;1.73;;;;;;;;;;5094861;28;20040;-77
2022/03/07 03:36:24;;;;;;;5.20;1.50;;;;;;;;;;5103537;28;20063;-77
2022/03/07 03:38:50;;;;;;;3.40;1.50;;;;;;;;;;5096593;28;20111;-77
2022/03/07 03:41:16;;;;;;;3.03;1.17;;;;;;;;;;5097407;28;20028;-76
2022/03/07 03:43:43;;;;;;;4.13;1.00;;;;;;;;;;5097837;28;20075;-77
2022/03/07 03:46:09;;;;;;;3.15;1.02;;;;;;;;;;5105787;28;20039;-77
2022/03/07 03:48:35;;;;;;;7.68;1.70;;;;;;;;;;5090013;27;20023;-76
2022/03/07 03:51:01;;;;;;;5.13;1.20;;;;;;;;;;5099574;28;20106;-77
2022/03/07 03:53:27;;;;;;;5.30;1.15;;;;;;;;;;5103240;28;20273;-76
2022/03/07 03:55:53;;;;;;;4.65;1.48;;;;;;;;;;5098681;27;20036;-76
2022/03/07 03:58:19;;;;;;;7.95;1.60;;;;;;;;;;5087727;28;20348;-76
2022/03/07 04:00:45;;;;;;;7.13;1.65;;;;;;;;;;5111733;27;20081;-77
2022/03/07 04:03:11;;;;;;;7.45;1.92;;;;;;;;;;5111126;28;20040;-77
2022/03/07 04:05:37;;;;;;;3.45;1.20;;;;;;;;;;5114523;27;20092;-76
2022/03/07 04:08:03;;;;;;;4.50;1.30;;;;;;;;;;5107804;27;20047;-76
2022/03/07 04:10:30;;;;;;;5.03;1.00;;;;;;;;;;5108787;28;20034;-76
2022/03/07 04:12:56;;;;;;;5.45;1.20;;;;;;;;;;5107028;28;20099;-77
2022/03/07 04:15:22;;;;;;;2.17;1.30;;;;;;;;;;5096271;28;20121;-76
2022/03/07 04:17:49;;;;;;;9.50;2.88;;;;;;;;;;5105393;27;20508;-77
2022/03/07 04:20:15;;;;;;;7.00;1.60;;;;;;;;;;5109697;28;20031;-76
2022/03/07 04:22:41;;;;;;;7.93;1.30;;;;;;;;;;5105473;27;20081;-76
2022/03/07 04:25:08;;;;;;;6.00;1.73;;;;;;;;;;5086782;28;20034;-76
2022/03/07 04:27:34;;;;;;;6.13;1.33;;;;;;;;;;5096516;28;20016;-76
2022/03/07 04:30:03;;;;;;;5.30;1.50;;;;;;;;;;5103438;28;20417;-77
2022/03/07 04:32:29;;;;;;;6.88;2.10;;;;;;;;;;5112330;28;20030;-76
2022/03/07 04:34:55;;;;;;;7.85;1.90;;;;;;;;;;5102461;27;20027;-76
2022/03/07 04:37:21;;;;;;;4.07;1.75;;;;;;;;;;5108078;27;20131;-76
2022/03/07 04:39:47;;;;;;;5.30;1.55;;;;;;;;;;5103403;28;20031;-76
2022/03/07 04:42:13;;;;;;;6.50;1.75;;;;;;;;;;5103339;28;20024;-76
2022/03/07 04:44:39;;;;;;;8.18;1.70;;;;;;;;;;5106216;28;20024;-76
2022/03/07 04:47:05;;;;;;;3.97;1.67;;;;;;;;;;5100605;27;20028;-76
2022/03/07 04:49:31;;;;;;;6.90;2.03;;;;;;;;;;5100314;28;20085;-76
2022/03/07 04:51:59;;;;;;;5.43;1.98;;;;;;;;;;5109219;28;20728;-76
2022/03/07 04:54:25;;;;;;;9.57;1.90;;;;;;;;;;5098104;28;20057;-76
2022/03/07 04:56:52;;;;;;;13.20;2.08;;;;;;;;;;5108694;28;20039;-75
2022/03/07 04:59:18;;;;;;;9.95;2.05;;;;;;;;;;5082066;28;20031;-75
2022/03/07 05:01:44;;;;;;;8.70;1.75;;;;;;;;;;5101575;28;20043;-76
2022/03/07 05:04:10;;;;;;;5.97;2.00;;;;;;;;;;5104738;28;20078;-76
2022/03/07 05:06:36;;;;;;;7.68;1.80;;;;;;;;;;5107101;27;20084;-77
2022/03/07 05:09:03;;;;;;;7.20;1.42;;;;;;;;;;5089272;27;20256;-76
2022/03/07 05:11:29;;;;;;;4.05;1.83;;;;;;;;;;5075987;28;20077;-77
2022/03/07 05:13:55;;;;;;;5.68;2.00;;;;;;;;;;5087461;28;20118;-76
2022/03/07 05:16:21;;;;;;;9.70;2.33;;;;;;;;;;5083075;28;20078;-76
2022/03/07 05:18:49;;;;;;;5.72;2.95;;;;;;;;;;5101418;28;20497;-76
2022/03/07 05:21:15;;;;;;;11.50;6.07;;;;;;;;;;5098630;28;20523;-76
2022/03/07 05:23:41;;;;;;;7.30;3.53;;;;;;;;;;5108968;27;20032;-76
2022/03/07 05:26:08;;;;;;;10.63;3.42;;;;;;;;;;5089421;28;20027;-76
2022/03/07 05:28:34;;;;;;;8.00;2.80;;;;;;;;;;5111718;28;20099;-76
2022/03/07 05:31:01;;;;;;;9.85;2.75;;;;;;;;;;5102735;28;20740;-76
2022/03/07 05:33:27;;;;;;;3.45;1.77;;;;;;;;;;5100235;27;20417;-77
2022/03/07 05:35:53;;;;;;;9.45;1.60;;;;;;;;;;5108160;28;20051;-76
2022/03/07 05:38:19;;;;;;;5.03;1.75;;;;;;;;;;5100224;28;20020;-74
2022/03/07 05:40:45;;;;;;;6.70;1.77;;;;;;;;;;5105615;27;20023;-76
2022/03/07 05:43:13;;;;;;;6.85;2.00;;;;;;;;;;5075850;28;20048;-77
2022/03/07 05:45:39;;;;;;;6.05;1.83;;;;;;;;;;5082308;28;20115;-78
2022/03/07 05:48:05;;;;;;;8.32;2.38;;;;;;;;;;5085062;28;20028;-76
2022/03/07 05:50:31;;;;;;;13.57;5.35;;;;;;;;;;5082525;28;20024;-77
2022/03/07 05:52:57;;;;;;;11.25;4.03;;;;;;;;;;5092274;28;20020;-73
2022/03/07 05:55:23;;;;;;;6.85;2.40;;;;;;;;;;5084062;28;20558;-76
2022/03/07 05:57:49;;;;;;;5.75;2.00;;;;;;;;;;5083003;28;20036;-76
2022/03/07 06:00:16;;;;;;;3.67;1.88;;;;;;;;;;5094526;28;20024;-75
2022/03/07 06:02:42;;;;;;;3.42;1.95;;;;;;;;;;5085451;28;20073;-77
2022/03/07 06:05:09;;;;;;;7.07;1.80;;;;;;;;;;5083332;28;20036;-75
2022/03/07 06:07:36;;;;;;;5.63;1.95;;;;;;;;;;5087172;28;20487;-75
2022/03/07 06:10:02;;;;;;;8.52;2.00;;;;;;;;;;5086284;28;20020;-75
2022/03/07 06:12:29;;;;;;;2.65;1.40;;;;;;;;;;5079493;28;20071;-78
2022/03/07 06:14:55;;;;;;;3.97;1.63;;;;;;;;;;5085153;28;20073;-74
2022/03/07 06:17:21;;;;;;;11.25;1.92;;;;;;;;;;5088785;28;20046;-73
2022/03/07 06:19:48;;;;;;;2.88;1.50;;;;;;;;;;5084678;28;20035;-75
2022/03/07 06:22:14;;;;;;;5.78;1.73;;;;;;;;;;5086534;28;20398;-75
2022/03/07 06:24:40;;;;;;;5.07;1.75;;;;;;;;;;5077430;28;20020;-75
2022/03/07 06:27:06;;;;;;;5.28;2.00;;;;;;;;;;5080883;28;20028;-75
2022/03/07 06:29:32;;;;;;;3.17;1.38;;;;;;;;;;5089781;28;20026;-74
2022/03/07 06:31:58;;;;;;;6.00;1.77;;;;;;;;;;5076893;28;20032;-74
2022/03/07 06:34:24;;;;;;;6.45;1.60;;;;;;;;;;5085807;28;20087;-74
2022/03/07 06:36:50;;;;;;;4.40;1.92;;;;;;;;;;5090193;28;20043;-74
2022/03/07 06:39:17;;;;;;;10.02;2.30;;;;;;;;;;5081455;28;20465;-74
2022/03/07 06:41:43;;;;;;;3.95;2.03;;;;;;;;;;5076358;28;20410;-74
2022/03/07 06:44:09;;;;;;;2.95;1.88;;;;;;;;;;5098542;27;20400;-74
2022/03/07 06:46:35;;;;;;;5.78;1.95;;;;;;;;;;5097342;28;20130;-74
2022/03/07 06:49:01;;;;;;;3.47;1.70;;;;;;;;;;5092577;28;20043;-73
2022/03/07 06:51:27;;;;;;;7.88;2.38;;;;;;;;;;5101984;28;20028;-71
2022/03/07 06:53:53;;;;;;;5.45;2.42;;;;;;;;;;5096386;28;20039;-74
2022/03/07 06:56:19;;;;;;;5.72;2.63;;;;;;;;;;5101198;28;20035;-74
2022/03/07 06:58:46;;;;;;;6.90;2.50;;;;;;;;;;5103360;28;20471;-76
2022/03/07 07:01:12;;;;;;;6.38;1.80;;;;;;;;;;5110525;28;20383;-74
2022/03/07 07:03:38;;;;;;;8.57;2.42;;;;;;;;;;5103293;28;20031;-75
2022/03/07 07:06:04;;;;;;;4.03;2.13;;;;;;;;;;5087484;28;20122;-74
2022/03/07 07:08:30;;;;;;;5.20;1.60;;;;;;;;;;5096519;28;20544;-75
2022/03/07 07:10:56;;;;;;;5.63;2.42;;;;;;;;;;5104677;28;20031;-75
2022/03/07 07:13:22;;;;;;;5.68;2.53;;;;;;;;;;5108297;28;20028;-75
2022/03/07 07:15:55;;;;;;;7.88;2.55;;;;;;;;;;5100101;27;20051;-75
2022/03/07 07:18:21;;;;;;;5.60;2.33;;;;;;;;;;5090957;27;20475;-75
2022/03/07 07:20:50;;;;;;;4.13;2.08;;;;;;;;;;5104281;28;20089;-75
2022/03/07 07:23:16;;;;;;;6.95;2.47;;;;;;;;;;5100100;28;20078;-75
2022/03/07 07:25:42;;;;;;;3.35;1.83;;;;;;;;;;5103471;28;20043;-74
2022/03/07 07:28:08;;;;;;;6.18;2.95;;;;;;;;;;5087095;28;20028;-75
2022/03/07 07:30:34;;;;;;;6.22;2.72;;;;;;;;;;5104498;28;20437;-75
2022/03/07 07:33:00;;;;;;;75.68;35.58;;;;;;;;;;5105520;28;20051;-76
2022/03/07 07:35:26;;;;;;;21.98;11.35;;;;;;;;;;5099580;28;20024;-76
2022/03/07 07:37:54;;;;;;;13.13;6.00;;;;;;;;;;5103653;28;20028;-75
2022/03/07 07:40:20;;;;;;;15.00;6.65;;;;;;;;;;5102881;28;20455;-77
2022/03/07 07:42:46;;;;;;;12.45;3.83;;;;;;;;;;5099714;28;20086;-77
2022/03/07 07:45:12;;;;;;;6.10;2.28;;;;;;;;;;5080131;28;20028;-77
2022/03/07 07:47:39;;;;;;;11.63;6.85;;;;;;;;;;5101815;28;20484;-78
2022/03/07 07:50:05;;;;;;;169.20;92.35;;;;;;;;;;5108404;28;20467;-77
2022/03/07 07:52:31;;;;;;;13.23;6.68;;;;;;;;;;5097428;28;20043;-78
2022/03/07 07:54:57;;;;;;;12.10;5.10;;;;;;;;;;5099869;28;20176;-79
2022/03/07 07:57:23;;;;;;;14.43;4.75;;;;;;;;;;5092230;28;20036;-79
2022/03/07 07:59:49;;;;;;;12.23;5.07;;;;;;;;;;5100615;28;20024;-79
2022/03/07 08:02:16;;;;;;;17.00;7.95;;;;;;;;;;5108240;28;20487;-79
2022/03/07 08:04:42;;;;;;;16.42;7.97;;;;;;;;;;5108918;28;20032;-77
2022/03/07 08:07:08;;;;;;;17.83;9.38;;;;;;;;;;5106200;28;20560;-77
2022/03/07 08:09:35;;;;;;;19.48;9.02;;;;;;;;;;5103212;28;20418;-78
2022/03/07 08:12:01;;;;;;;19.35;9.05;;;;;;;;;;5086790;28;20028;-78
2022/03/07 08:14:27;;;;;;;13.15;7.05;;;;;;;;;;5100495;28;20056;-77
2022/03/07 08:16:53;;;;;;;12.38;8.07;;;;;;;;;;5096933;28;20043;-78
2022/03/07 08:19:19;;;;;;;16.33;8.57;;;;;;;;;;5102763;28;20020;-78
2022/03/07 08:21:45;;;;;;;10.77;6.65;;;;;;;;;;5107092;28;20023;-78
2022/03/07 08:24:11;;;;;;;10.00;6.55;;;;;;;;;;5101095;28;20038;-78
2022/03/07 08:26:38;;;;;;;9.82;6.38;;;;;;;;;;5091383;28;20032;-78
2022/03/07 08:29:05;;;;;;;14.15;7.68;;;;;;;;;;5105935;28;20073;-78
2022/03/07 08:31:31;;;;;;;8.90;7.13;;;;;;;;;;5111892;28;20023;-78
2022/03/07 08:33:57;;;;;;;12.07;6.93;;;;;;;;;;5106340;28;20047;-78
2022/03/07 08:36:23;;;;;;;11.23;6.40;;;;;;;;;;5103436;28;20823;-77
2022/03/07 08:38:49;;;;;;;11.45;8.02;;;;;;;;;;5110479;28;20015;-78
2022/03/07 08:41:15;;;;;;;12.85;7.75;;;;;;;;;;5099259;27;20099;-78
2022/03/07 08:43:42;;;;;;;11.23;6.57;;;;;;;;;;5098137;28;20051;-77
2022/03/07 08:46:08;;;;;;;11.20;6.05;;;;;;;;;;5105147;28;20036;-78
2022/03/07 08:48:34;;;;;;;9.60;6.35;;;;;;;;;;5076782;27;20467;-77
2022/03/07 08:51:01;;;;;;;10.02;5.28;;;;;;;;;;5120672;27;20502;-78
2022/03/07 08:53:28;;;;;;;12.88;6.38;;;;;;;;;;5079474;28;20387;-78
2022/03/07 08:55:54;;;;;;;10.85;5.72;;;;;;;;;;5104154;28;20047;-78
2022/03/07 08:58:20;;;;;;;13.32;7.03;;;;;;;;;;5099940;28;20440;-78
2022/03/07 09:00:46;;;;;;;17.33;6.03;;;;;;;;;;5107750;27;20032;-79
2022/03/07 09:03:12;;;;;;;12.68;6.05;;;;;;;;;;5081689;28;20033;-78
2022/03/07 09:05:38;;;;;;;12.07;5.50;;;;;;;;;;5104818;28;20028;-79
2022/03/07 09:08:04;;;;;;;14.77;6.70;;;;;;;;;;5100493;28;20115;-78
2022/03/07 09:10:30;;;;;;;10.82;6.45;;;;;;;;;;5092375;28;20034;-78
2022/03/07 09:12:56;;;;;;;8.98;4.90;;;;;;;;;;5084243;28;20063;-78
2022/03/07 09:15:22;;;;;;;6.07;4.50;;;;;;;;;;5111267;28;20050;-78
2022/03/07 09:17:48;;;;;;;10.18;5.47;;;;;;;;;;5100371;28;20036;-78
2022/03/07 09:20:17;;;;;;;8.10;5.07;;;;;;;;;;5087691;28;20036;-78
2022/03/07 09:22:43;;;;;;;6.57;4.57;;;;;;;;;;5095429;28;20070;-78
2022/03/07 09:25:10;;;;;;;7.40;3.42;;;;;;;;;;5104053;28;20091;-78
2022/03/07 09:27:36;;;;;;;8.45;3.67;;;;;;;;;;5098709;28;20032;-78
2022/03/07 09:30:04;;;;;;;4.50;2.22;;;;;;;;;;5102743;28;20031;-77
2022/03/07 09:32:30;;;;;;;4.35;2.25;;;;;;;;;;5095554;28;20077;-77
2022/03/07 09:34:56;;;;;;;7.38;2.60;;;;;;;;;;5100368;28;20105;-78
2022/03/07 09:37:22;;;;;;;7.60;3.28;;;;;;;;;;5102498;28;20067;-78
2022/03/07 09:39:48;;;;;;;8.13;2.97;;;;;;;;;;5095312;28;20020;-77
2022/03/07 09:42:15;;;;;;;9.18;3.33;;;;;;;;;;5107172;27;20379;-78
2022/03/07 09:44:41;;;;;;;9.70;2.95;;;;;;;;;;5106518;28;20048;-78
2022/03/07 09:47:07;;;;;;;6.20;3.15;;;;;;;;;;5107230;28;20043;-77
2022/03/07 09:49:33;;;;;;;7.88;3.63;;;;;;;;;;5102570;28;20042;-77
2022/03/07 09:51:59;;;;;;;6.95;3.50;;;;;;;;;;5098807;28;20119;-78
2022/03/07 09:54:25;;;;;;;4.30;2.50;;;;;;;;;;5097859;28;20336;-77
2022/03/07 09:56:52;;;;;;;5.88;3.00;;;;;;;;;;5103201;27;20066;-77
2022/03/07 09:59:19;;;;;;;5.03;2.78;;;;;;;;;;5099179;27;20028;-77
2022/03/07 10:01:45;;;;;;;5.15;2.70;;;;;;;;;;5101559;27;20040;-78
2022/03/07 10:04:13;;;;;;;5.00;2.50;;;;;;;;;;5101228;28;20024;-78
2022/03/07 10:06:47;;;;;;;6.78;2.50;;;;;;;;;;5096336;28;20392;-78
2022/03/07 10:09:18;;;;;;;4.20;2.40;;;;;;;;;;5104770;28;20039;-78
2022/03/07 10:11:50;;;;;;;4.35;2.15;;;;;;;;;;5093517;28;20443;-79
2022/03/07 10:14:16;;;;;;;7.35;2.40;;;;;;;;;;5101313;27;20073;-77
2022/03/07 10:16:43;;;;;;;5.35;2.22;;;;;;;;;;5079595;28;20047;-77
2022/03/07 10:19:10;;;;;;;2.85;1.92;;;;;;;;;;5101973;28;20034;-78
2022/03/07 10:21:37;;;;;;;6.13;2.42;;;;;;;;;;5087149;28;20023;-78
2022/03/07 10:24:03;;;;;;;3.47;2.20;;;;;;;;;;5096478;28;20431;-78
2022/03/07 10:26:34;;;;;;;4.70;2.20;;;;;;;;;;5103607;27;20119;-77
2022/03/07 10:29:00;;;;;;;5.05;2.08;;;;;;;;;;5097107;28;20455;-77
2022/03/07 10:31:26;;;;;;;5.60;2.55;;;;;;;;;;5097701;27;20121;-77
2022/03/07 10:34:02;;;;;;;4.97;2.60;;;;;;;;;;5105429;28;20024;-77
2022/03/07 10:36:31;;;;;;;5.30;2.33;;;;;;;;;;5096021;28;20074;-77
2022/03/07 10:38:58;;;;;;;7.20;3.00;;;;;;;;;;5073385;28;20024;-77
2022/03/07 10:41:37;;;;;;;6.10;2.55;;;;;;;;;;5108877;28;20050;-77
2022/03/07 10:44:04;;;;;;;11.05;3.85;;;;;;;;;;5072171;28;20048;-77
2022/03/07 10:46:30;;;;;;;6.13;2.50;;;;;;;;;;5084928;28;20028;-77
2022/03/07 10:48:57;;;;;;;8.55;2.65;;;;;;;;;;5100970;28;20030;-77
2022/03/07 10:51:25;;;;;;;4.63;2.90;;;;;;;;;;5095601;28;20359;-77
2022/03/07 10:53:51;;;;;;;8.55;3.22;;;;;;;;;;5105166;28;20115;-77
2022/03/07 10:56:18;;;;;;;8.45;2.50;;;;;;;;;;5072878;28;20040;-77
2022/03/07 10:58:54;;;;;;;4.63;2.40;;;;;;;;;;5097855;28;20027;-78
2022/03/07 11:01:30;;;;;;;4.13;2.00;;;;;;;;;;5100744;28;21314;-77
2022/03/07 11:03:57;;;;;;;3.70;1.77;;;;;;;;;;5080472;28;20032;-77
2022/03/07 11:06:23;;;;;;;4.05;1.75;;;;;;;;;;5080760;28;20056;-77
2022/03/07 11:08:49;;;;;;;6.55;2.53;;;;;;;;;;5111879;28;20026;-78
2022/03/07 11:11:15;;;;;;;2.40;1.40;;;;;;;;;;5101944;28;20102;-78
2022/03/07 11:13:42;;;;;;;4.22;1.70;;;;;;;;;;5098641;28;20506;-77
2022/03/07 11:16:08;;;;;;;3.53;1.45;;;;;;;;;;5082137;28;20100;-77
2022/03/07 11:18:34;;;;;;;5.22;1.92;;;;;;;;;;5104197;28;20096;-77
2022/03/07 11:21:02;;;;;;;5.90;1.75;;;;;;;;;;5094004;28;20032;-77
2022/03/07 11:23:29;;;;;;;6.00;1.70;;;;;;;;;;5103966;28;20107;-77
2022/03/07 11:25:57;;;;;;;4.80;2.03;;;;;;;;;;5101043;28;20028;-78
2022/03/07 11:28:24;;;;;;;1.23;1.05;;;;;;;;;;5102252;28;20032;-77
2022/03/07 11:30:50;;;;;;;2.60;1.90;;;;;;;;;;5098780;28;20031;-77
2022/03/07 11:33:18;;;;;;;7.78;1.92;;;;;;;;;;5090713;28;20035;-77
2022/03/07 11:35:44;;;;;;;5.18;1.98;;;;;;;;;;5101439;28;20027;-77
2022/03/07 11:38:20;;;;;;;4.03;1.60;;;;;;;;;;5106172;28;20028;-77
2022/03/07 11:40:56;;;;;;;3.30;1.15;;;;;;;;;;5101878;28;20372;-77
2022/03/07 11:43:24;;;;;;;3.95;1.52;;;;;;;;;;5099024;28;20059;-77
2022/03/07 11:45:50;;;;;;;3.65;1.35;;;;;;;;;;5103910;28;20051;-77
2022/03/07 11:48:16;;;;;;;5.38;1.55;;;;;;;;;;5098674;28;20077;-77
2022/03/07 11:50:43;;;;;;;4.10;1.27;;;;;;;;;;5109445;28;20107;-77
2022/03/07 11:53:09;;;;;;;4.32;2.20;;;;;;;;;;5071708;28;20476;-77
2022/03/07 11:55:43;;;;;;;4.32;1.60;;;;;;;;;;5104274;28;20016;-77
2022/03/07 11:58:09;;;;;;;2.97;1.20;;;;;;;;;;5106272;28;20040;-77
2022/03/07 12:00:36;;;;;;;4.22;1.23;;;;;;;;;;5100038;28;20034;-77
2022/03/07 12:03:16;;;;;;;1.77;1.10;;;;;;;;;;5106409;28;20430;-77
2022/03/07 12:05:43;;;;;;;2.80;1.27;;;;;;;;;;5111823;28;20051;-77
2022/03/07 12:08:16;;;;;;;4.85;1.40;;;;;;;;;;5104446;27;20761;-77
2022/03/07 12:10:55;;;;;;;1.15;0.85;;;;;;;;;;5101367;28;20019;-77
2022/03/07 12:13:22;;;;;;;4.05;1.00;;;;;;;;;;5100248;28;20043;-77
2022/03/07 12:15:49;;;;;;;2.78;0.98;;;;;;;;;;5102078;28;20078;-77
2022/03/07 12:18:16;;;;;;;4.72;1.00;;;;;;;;;;5096359;28;20016;-77
2022/03/07 12:20:53;;;;;;;3.88;1.33;;;;;;;;;;5099399;27;20031;-77
2022/03/07 12:23:20;;;;;;;2.05;0.80;;;;;;;;;;5104533;27;20483;-77
2022/03/07 12:25:46;;;;;;;2.17;0.85;;;;;;;;;;5110703;28;20035;-77
2022/03/07 12:28:13;;;;;;;5.00;1.20;;;;;;;;;;5103783;28;20115;-77
2022/03/07 12:30:39;;;;;;;1.95;0.95;;;;;;;;;;5100704;28;20020;-77
2022/03/07 12:33:06;;;;;;;4.35;1.33;;;;;;;;;;5110187;28;20024;-77
2022/03/07 12:35:32;;;;;;;2.78;1.10;;;;;;;;;;5109391;28;20563;-77
2022/03/07 12:37:59;;;;;;;1.88;0.85;;;;;;;;;;5111651;27;20043;-77
2022/03/07 12:40:25;;;;;;;3.60;1.30;;;;;;;;;;5102037;28;20027;-77
2022/03/07 12:42:54;;;;;;;1.60;0.85;;;;;;;;;;5113456;28;20134;-77
2022/03/07 12:45:20;;;;;;;2.70;0.73;;;;;;;;;;5100106;27;20032;-77
2022/03/07 12:47:46;;;;;;;2.75;1.42;;;;;;;;;;5106193;28;20509;-77
2022/03/07 12:50:13;;;;;;;2.17;1.00;;;;;;;;;;5095755;27;20049;-77
2022/03/07 12:52:43;;;;;;;3.17;0.70;;;;;;;;;;5101280;28;20468;-77
2022/03/07 12:55:14;;;;;;;2.45;0.95;;;;;;;;;;5106328;28;20035;-77
2022/03/07 12:57:40;;;;;;;3.30;0.70;;;;;;;;;;5093078;28;20040;-78
2022/03/07 13:00:11;;;;;;;2.83;1.08;;;;;;;;;;5102130;28;20069;-77
2022/03/07 13:02:42;;;;;;;4.40;1.17;;;;;;;;;;5090533;28;20032;-78
2022/03/07 13:05:12;;;;;;;1.70;0.82;;;;;;;;;;5108344;27;20104;-77
2022/03/07 13:07:38;;;;;;;1.90;1.00;;;;;;;;;;5107354;27;20491;-78
2022/03/07 13:10:08;;;;;;;3.95;1.60;;;;;;;;;;5110867;28;20039;-77
2022/03/07 13:12:35;;;;;;;2.50;0.85;;;;;;;;;;5106063;27;20073;-77
2022/03/07 13:15:01;;;;;;;1.70;1.00;;;;;;;;;;5105890;28;20028;-77
2022/03/07 13:17:27;;;;;;;4.32;1.40;;;;;;;;;;5083106;28;20045;-77
2022/03/07 13:19:54;;;;;;;4.35;1.35;;;;;;;;;;5102795;28;20027;-77
2022/03/07 13:22:20;;;;;;;3.65;0.90;;;;;;;;;;5098934;28;20490;-77
2022/03/07 13:24:53;;;;;;;1.88;0.80;;;;;;;;;;5105332;27;20089;-77
2022/03/07 13:27:20;;;;;;;1.85;0.80;;;;;;;;;;5105582;28;20049;-77
2022/03/07 13:29:46;;;;;;;7.10;0.95;;;;;;;;;;5098265;27;20028;-77
2022/03/07 13:32:12;;;;;;;3.20;0.82;;;;;;;;;;5102180;27;20443;-76
2022/03/07 13:34:46;;;;;;;1.70;0.77;;;;;;;;;;5098203;28;20077;-77
2022/03/07 13:37:17;;;;;;;2.22;1.00;;;;;;;;;;5106847;28;20558;-76
2022/03/07 13:39:43;;;;;;;5.32;1.00;;;;;;;;;;5110922;28;20031;-76
2022/03/07 13:42:13;;;;;;;6.20;1.48;;;;;;;;;;5093869;28;20874;-76
2022/03/07 13:44:49;;;;;;;1.38;0.82;;;;;;;;;;5103222;27;20097;-77
2022/03/07 13:47:15;;;;;;;4.50;0.90;;;;;;;;;;5083967;28;20074;-76
2022/03/07 13:49:49;;;;;;;3.75;1.02;;;;;;;;;;5074906;28;20024;-76
2022/03/07 13:52:16;;;;;;;2.45;1.00;;;;;;;;;;5085950;28;20024;-76
2022/03/07 13:54:43;;;;;;;2.88;0.90;;;;;;;;;;5092801;28;20024;-76
2022/03/07 13:57:09;;;;;;;2.05;0.85;;;;;;;;;;5102092;28;20028;-76
2022/03/07 13:59:35;;;;;;;1.80;0.85;;;;;;;;;;5111019;28;20035;-76
2022/03/07 14:02:12;;;;;;;2.00;0.88;;;;;;;;;;5101053;27;20545;-76
2022/03/07 14:04:38;;;;;;;3.15;0.95;;;;;;;;;;5099599;28;20026;-76
2022/03/07 14:07:05;;;;;;;4.05;1.00;;;;;;;;;;5092287;28;20093;-76
2022/03/07 14:09:31;;;;;;;2.70;0.95;;;;;;;;;;5105521;27;20030;-76
2022/03/07 14:12:01;;;;;;;1.35;0.60;;;;;;;;;;5109800;28;20028;-76
2022/03/07 14:14:27;;;;;;;2.00;0.73;;;;;;;;;;5098003;27;20035;-76
2022/03/07 14:16:54;;;;;;;2.15;0.88;;;;;;;;;;5102309;28;20391;-76
2022/03/07 14:19:20;;;;;;;3.25;0.80;;;;;;;;;;5094315;28;20474;-76
2022/03/07 14:21:46;;;;;;;4.20;0.80;;;;;;;;;;5102530;28;20506;-76
2022/03/07 14:24:12;;;;;;;2.85;0.90;;;;;;;;;;5101622;28;20020;-76
2022/03/07 14:26:38;;;;;;;4.65;1.17;;;;;;;;;;5117541;27;20043;-76
2022/03/07 14:29:04;;;;;;;4.60;1.25;;;;;;;;;;5112691;27;20107;-76
2022/03/07 14:31:34;;;;;;;1.65;1.00;;;;;;;;;;5105903;28;20474;-76
2022/03/07 14:34:00;;;;;;;1.52;0.93;;;;;;;;;;5100682;28;20085;-76
2022/03/07 14:36:27;;;;;;;2.83;0.70;;;;;;;;;;5099738;28;20070;-76
2022/03/07 14:38:53;;;;;;;3.00;1.13;;;;;;;;;;5105518;28;20027;-76